METAR AND TAF INFORMATION
METAR FOR OIAW
ADDS - METARS form results

(0528 UTC 02 June 2020)
Data provider http://aviationweather.gov/metar/data/
 
METAR text: OIAW 020500Z 15004KT 6000 FEW040 SCT200 34/20 Q1003
Conditions at: OIAW (AHWAZ , IR) observed 0500 UTC 02 June 2020
Temperature: 34.0°C (93°F)
Dewpoint: 20.0°C (68°F) [RH = 44%]
Pressure (altimeter): 29.62 inches Hg (1003.0 mb)
Winds: from the SSE (150 degrees) at 5 MPH (4 knots; 2.1 m/s)
Visibility: 4 miles ( 6 km)
Ceiling: at least 12,000 feet AGL
Clouds: few clouds at 4000 feet AGL
scattered clouds at 20000 feet AGL
Weather: no significant weather observed at this time

METAR text: OIAW 020430Z 18004KT 6000 FEW040 33/20 Q1003
Conditions at: OIAW (AHWAZ , IR) observed 0430 UTC 02 June 2020
Temperature: 33.0°C (91°F)
Dewpoint: 20.0°C (68°F) [RH = 46%]
Pressure (altimeter): 29.62 inches Hg (1003.0 mb)
Winds: from the S (180 degrees) at 5 MPH (4 knots; 2.1 m/s)
Visibility: 4 miles ( 6 km)
Ceiling: at least 12,000 feet AGL
Clouds: few clouds at 4000 feet AGL
Weather: no significant weather observed at this time

Forecast for: OIAW (AHWAZ , IR)
Text: TAF OIAW 012300Z 0200/0306 26006KT 7000 NSC
Forecast period: 0000 UTC 02 June 2020 to 0600 UTC 03 June 2020
Forecast type: FROM: standard forecast or significant change
Winds: from the W (260 degrees) at 7 MPH (6 knots; 3.1 m/s)
Visibility: 4 miles (7 km)
Ceiling: unknown
Clouds: missing
Weather: no significant weather forecast for this period
Text: TEMPO 0209/0216 22020KT 5000 SA FEW035TCU SCT040
Forecast period: 0900 to 1600 UTC 02 June 2020
Forecast type: TEMPORARY: The following changes expected for less than half the time period
Winds: from the SW (220 degrees) at 23 MPH (20 knots; 10.3 m/s)
Visibility: 3 miles (5 km)
Ceiling: at least 12,000 feet AGL
Clouds: few clouds at 3500 feet AGL
scattered clouds at 4000 feet AGL
Weather: SA  (sand)

 AIRPORT MAP

 RUNWAY INFORMATION
Runway 12 Runway length 11149 ft Runway width 148 ft
Runway elevation 66 ft Runway displaced threshold 0 ft Runway heading 124
Runway 30 Runway length 11149 ft Runway width 148 ft
Runway elevation 59 ft Runway displaced threshold 0 ft Runway heading 304

 AIRPORT FREQUENCIES
Type ATIS Name ATIS Frequency 126.4 MHZ
Type TWR Name TWR Frequency 121.1 MHZ

 AIRPORT NEAR NAVIGATION AIDS
Type VOR-DME Name Ahwaz Frequency 114000 KHZ
Type NDB Name Ahwaz Frequency 415 KHZ



Copyright @ Zagros Virtual Airline